createdAt,value
2022-09-12T00:00:35.382Z,100080.78
2022-09-12T00:03:01.924Z,100085.75
2022-09-12T00:05:28.229Z,100085.75
2022-09-12T00:07:54.508Z,100068.03
2022-09-12T00:10:21.032Z,100060.41
2022-09-12T00:12:47.286Z,100068.44
2022-09-12T00:15:13.841Z,100081.22
2022-09-12T00:17:40.403Z,100080.25
2022-09-12T00:20:08.661Z,100085.91
2022-09-12T00:22:35.724Z,100086.06
2022-09-12T00:25:02.861Z,100082.19
2022-09-12T00:27:29.425Z,100079.28
2022-09-12T00:29:55.703Z,100077.19
2022-09-12T00:32:22.318Z,100076.22
2022-09-12T00:34:48.582Z,100069.16
2022-09-12T00:37:14.861Z,100078.31
2022-09-12T00:39:41.470Z,100078.88
2022-09-12T00:42:09.915Z,100083.31
2022-09-12T00:44:36.052Z,100079.12
2022-09-12T00:47:02.470Z,100077.03
2022-09-12T00:49:31.601Z,100084.94
2022-09-12T00:52:05.792Z,100088.75
2022-09-12T00:54:36.014Z,100076.47
2022-09-12T00:57:04.959Z,100089.91
2022-09-12T00:59:38.508Z,100073.63
2022-09-12T01:02:04.873Z,100079.59
2022-09-12T01:04:31.589Z,100071.25
2022-09-12T01:06:58.740Z,100077.97
2022-09-12T01:09:25.742Z,100076.06
2022-09-12T01:11:53.274Z,100070.47
2022-09-12T01:14:20.247Z,100065.88
2022-09-12T01:16:47.582Z,100084.72
2022-09-12T01:19:46.282Z,100086.94
2022-09-12T01:22:40.050Z,100091.69
2022-09-12T01:25:25.347Z,100087.00
2022-09-12T01:28:06.540Z,100080.91
2022-09-12T01:30:41.916Z,100086.31
2022-09-12T01:33:17.317Z,100080.09
2022-09-12T01:35:46.056Z,100079.28
2022-09-12T01:38:21.331Z,100085.63
2022-09-12T01:41:11.652Z,100082.03
2022-09-12T01:43:56.166Z,100087.84
2022-09-12T01:46:37.091Z,100071.06
2022-09-12T01:49:12.638Z,100076.50
2022-09-12T01:51:44.740Z,100083.44
2022-09-12T01:54:20.792Z,100083.69
2022-09-12T01:56:50.129Z,100079.94
2022-09-12T01:59:33.413Z,100082.56
2022-09-12T02:02:23.885Z,100083.38
2022-09-12T02:05:00.132Z,100070.78
2022-09-12T02:07:48.977Z,100079.94
2022-09-12T02:10:18.419Z,100074.22
2022-09-12T02:12:57.711Z,100067.31
2022-09-12T02:15:34.966Z,100062.59
2022-09-12T02:18:02.835Z,100079.53
2022-09-12T02:20:47.311Z,100063.69
2022-09-12T02:23:20.474Z,100079.00
2022-09-12T02:25:49.386Z,100080.09
2022-09-12T02:28:19.272Z,100082.16
2022-09-12T02:30:53.242Z,100075.13
2022-09-12T02:33:22.415Z,100074.81
2022-09-12T02:35:57.981Z,100081.84
2022-09-12T02:38:38.320Z,100069.81
2022-09-12T02:41:04.680Z,100060.22
2022-09-12T02:43:31.252Z,100076.69
2022-09-12T02:45:57.594Z,100074.72
2022-09-12T02:48:27.468Z,100077.31
2022-09-12T02:50:54.160Z,100073.94
2022-09-12T02:53:20.714Z,100077.47
2022-09-12T02:55:46.963Z,100081.16
2022-09-12T02:58:18.335Z,100077.59
2022-09-12T03:00:47.645Z,100083.75
2022-09-12T03:03:31.314Z,100078.44
2022-09-12T03:06:03.144Z,100075.84
2022-09-12T03:08:29.600Z,100070.94
2022-09-12T03:11:04.930Z,100083.78
2022-09-12T03:13:34.380Z,100093.94
2022-09-12T03:16:17.325Z,100090.00
2022-09-12T03:18:46.991Z,100095.25
2022-09-12T03:21:34.163Z,100090.75
2022-09-12T03:24:06.882Z,100096.00
2022-09-12T03:26:40.528Z,100094.94
2022-09-12T03:29:07.929Z,100103.53
2022-09-12T03:31:34.216Z,100097.34
2022-09-12T03:34:00.954Z,100088.75
2022-09-12T03:36:29.686Z,100104.00
2022-09-12T03:38:56.074Z,100091.97
2022-09-12T03:41:22.528Z,100082.81
2022-09-12T03:43:49.062Z,100075.94
2022-09-12T03:46:15.329Z,100096.06
2022-09-12T03:48:41.899Z,100104.38
2022-09-12T03:51:10.325Z,100109.62
2022-09-12T03:53:36.632Z,100108.69
2022-09-12T03:56:10.077Z,100108.81
2022-09-12T03:58:37.273Z,100094.75
2022-09-12T04:01:12.039Z,100112.66
2022-09-12T04:03:40.275Z,100086.78
2022-09-12T04:06:07.783Z,100117.44
2022-09-12T04:08:35.420Z,100120.16
2022-09-12T04:11:11.149Z,100103.03
2022-09-12T04:13:38.312Z,100128.50
2022-09-12T04:16:05.606Z,100105.37
2022-09-12T04:18:32.032Z,100110.91
2022-09-12T04:20:58.486Z,100114.94
2022-09-12T04:23:25.088Z,100114.69
2022-09-12T04:25:55.754Z,100126.62
2022-09-12T04:28:22.224Z,100124.97
2022-09-12T04:30:48.755Z,100125.19
2022-09-12T04:33:15.130Z,100131.50
2022-09-12T04:35:41.695Z,100124.59
2022-09-12T04:38:08.196Z,100130.91
2022-09-12T04:40:34.612Z,100136.06
2022-09-12T04:43:01.063Z,100127.34
2022-09-12T04:45:27.755Z,100112.78
2022-09-12T04:47:53.999Z,100140.22
2022-09-12T04:50:20.290Z,100146.88
2022-09-12T04:52:51.195Z,100133.53
2022-09-12T04:55:17.475Z,100148.31
2022-09-12T04:57:43.729Z,100147.12
2022-09-12T05:00:13.519Z,100148.78
2022-09-12T05:02:40.601Z,100149.03
2022-09-12T05:05:07.499Z,100163.59
2022-09-12T05:07:34.118Z,100166.44
2022-09-12T05:10:00.502Z,100176.69
2022-09-12T05:12:27.772Z,100178.72
2022-09-12T05:14:54.282Z,100181.19
2022-09-12T05:17:20.516Z,100179.75
2022-09-12T05:19:47.955Z,100178.50
2022-09-12T05:22:14.477Z,100182.87
2022-09-12T05:24:47.274Z,100192.94
2022-09-12T05:27:17.081Z,100171.47
2022-09-12T05:29:43.789Z,100179.47
2022-09-12T05:32:10.110Z,100168.75
2022-09-12T05:34:37.958Z,100169.16
2022-09-12T05:37:04.892Z,100188.94
2022-09-12T05:39:31.118Z,100177.25
2022-09-12T05:41:57.753Z,100175.31
2022-09-12T05:44:27.183Z,100201.50
2022-09-12T05:46:54.587Z,100182.84
2022-09-12T05:49:21.623Z,100160.97
2022-09-12T05:51:48.012Z,100180.03
2022-09-12T05:54:17.331Z,100162.94
2022-09-12T05:56:53.774Z,100186.34
2022-09-12T05:59:21.344Z,100186.13
2022-09-12T06:01:48.647Z,100193.06
2022-09-12T06:04:15.889Z,100190.00
2022-09-12T06:06:45.192Z,100192.81
2022-09-12T06:09:13.131Z,100190.91
2022-09-12T06:11:43.464Z,100196.44
2022-09-12T06:14:11.418Z,100174.62
2022-09-12T06:16:37.936Z,100195.34
2022-09-12T06:19:07.396Z,100186.59
2022-09-12T06:21:35.472Z,100189.25
2022-09-12T06:24:02.264Z,100182.03
2022-09-12T06:26:29.251Z,100180.00
2022-09-12T06:28:56.996Z,100194.41
2022-09-12T06:31:29.175Z,100196.91
2022-09-12T06:33:57.190Z,100195.41
2022-09-12T06:36:25.925Z,100198.03
2022-09-12T06:39:04.445Z,100192.34
2022-09-12T06:41:32.012Z,100195.53
2022-09-12T06:43:59.187Z,100205.66
2022-09-12T06:46:28.772Z,100199.78
2022-09-12T06:49:00.584Z,100205.88
2022-09-12T06:51:29.706Z,100206.09
2022-09-12T06:53:57.125Z,100205.00
2022-09-12T06:56:26.352Z,100191.34
2022-09-12T06:58:54.569Z,100213.94
2022-09-12T07:01:26.436Z,100214.28
2022-09-12T07:03:55.910Z,100184.69
2022-09-12T07:06:24.441Z,100217.59
2022-09-12T07:08:50.830Z,100217.69
2022-09-12T07:11:26.571Z,100206.53
2022-09-12T07:13:54.914Z,100215.50
2022-09-12T07:16:21.199Z,100210.03
2022-09-12T07:18:51.661Z,100211.38
2022-09-12T07:21:18.805Z,100216.41
2022-09-12T07:23:45.730Z,100189.25
2022-09-12T07:26:13.565Z,100211.06
2022-09-12T07:28:40.698Z,100220.03
2022-09-12T07:31:09.412Z,100221.97
2022-09-12T07:33:36.191Z,100222.44
2022-09-12T07:36:05.804Z,100221.06
2022-09-12T07:38:32.379Z,100217.56
2022-09-12T07:40:58.983Z,100213.72
2022-09-12T07:43:25.524Z,100217.16
2022-09-12T07:45:56.691Z,100213.09
2022-09-12T07:48:23.370Z,100212.59
2022-09-12T07:51:06.340Z,100218.09
2022-09-12T07:53:35.413Z,100216.72
2022-09-12T07:56:03.120Z,100214.91
2022-09-12T07:58:30.908Z,100223.56
2022-09-12T08:01:07.255Z,100227.31
2022-09-12T08:03:35.131Z,100225.69
2022-09-12T08:06:08.315Z,100205.47
2022-09-12T08:08:35.421Z,100215.81
2022-09-12T08:11:03.849Z,100209.72
2022-09-12T08:13:30.499Z,100215.34
2022-09-12T08:16:01.094Z,100200.94
2022-09-12T08:18:28.953Z,100202.81
2022-09-12T08:20:59.651Z,100202.87
2022-09-12T08:23:28.817Z,100190.97
2022-09-12T08:26:05.735Z,100200.81
2022-09-12T08:28:40.505Z,100183.59
2022-09-12T08:31:09.607Z,100200.97
2022-09-12T08:33:43.361Z,100200.91
2022-09-12T08:36:14.195Z,100185.59
2022-09-12T08:38:45.210Z,100199.87
2022-09-12T08:41:48.910Z,100197.66
2022-09-12T08:44:47.042Z,100203.37
2022-09-12T08:47:19.782Z,100191.47
2022-09-12T08:50:08.182Z,100199.94
2022-09-12T08:53:12.208Z,100193.75
2022-09-12T08:55:45.616Z,100190.16
2022-09-12T08:58:17.084Z,100186.47
2022-09-12T09:00:56.046Z,100180.00
2022-09-12T09:03:46.717Z,100189.75
2022-09-12T09:06:38.948Z,100196.41
2022-09-12T09:09:10.464Z,100187.53
2022-09-12T09:11:43.073Z,100195.16
2022-09-12T09:14:51.945Z,100195.59
2022-09-12T09:17:33.853Z,100190.94
2022-09-12T09:20:22.805Z,100187.69
2022-09-12T09:23:06.831Z,100176.44
2022-09-12T09:25:53.769Z,100151.44
2022-09-12T09:28:24.236Z,100180.50
2022-09-12T09:30:53.800Z,100154.00
2022-09-12T09:33:26.814Z,100183.50
2022-09-12T09:36:00.430Z,100177.88
2022-09-12T09:38:39.808Z,100178.63
2022-09-12T09:41:18.771Z,100177.88
2022-09-12T09:43:45.945Z,100189.59
2022-09-12T09:46:16.129Z,100141.47
2022-09-12T09:48:46.215Z,100169.84
2022-09-12T09:51:15.050Z,100184.47
2022-09-12T09:53:47.871Z,100173.16
2022-09-12T09:56:28.202Z,100178.09
2022-09-12T09:58:54.672Z,100196.00
2022-09-12T10:01:21.786Z,100191.22
2022-09-12T10:03:54.744Z,100154.22
2022-09-12T10:06:40.172Z,100184.81
2022-09-12T10:09:13.177Z,100182.72
2022-09-12T10:11:43.683Z,100184.97
2022-09-12T10:14:38.985Z,100173.34
2022-09-12T10:17:34.102Z,100175.78
2022-09-12T10:20:20.388Z,100173.63
2022-09-12T10:22:47.994Z,100179.22
2022-09-12T10:25:18.413Z,100171.16
2022-09-12T10:27:44.649Z,100177.59
2022-09-12T10:30:19.706Z,100178.47
2022-09-12T10:32:50.827Z,100183.13
2022-09-12T10:35:20.111Z,100181.38
2022-09-12T10:37:54.539Z,100182.09
2022-09-12T10:40:27.857Z,100194.66
2022-09-12T10:42:57.346Z,100185.50
2022-09-12T10:45:37.971Z,100188.50
2022-09-12T10:48:28.394Z,100189.37
2022-09-12T10:50:54.725Z,100182.38
2022-09-12T10:53:48.942Z,100180.75
2022-09-12T10:57:03.506Z,100169.28
2022-09-12T10:59:45.045Z,100171.78
2022-09-12T11:02:29.110Z,100172.81
2022-09-12T11:05:29.399Z,100166.53
2022-09-12T11:08:01.565Z,100165.75
2022-09-12T11:11:14.938Z,100161.31
2022-09-12T11:14:09.176Z,100169.53
2022-09-12T11:16:59.415Z,100172.34
2022-09-12T11:19:47.123Z,100165.38
2022-09-12T11:22:50.267Z,100170.28
2022-09-12T11:25:38.673Z,100161.56
2022-09-12T11:28:26.271Z,100169.37
2022-09-12T11:31:11.650Z,100171.66
2022-09-12T11:33:44.123Z,100172.03
2022-09-12T11:36:28.581Z,100163.94
2022-09-12T11:39:03.996Z,100152.41
2022-09-12T11:41:33.808Z,100170.38
2022-09-12T11:44:18.284Z,100163.16
2022-09-12T11:46:48.721Z,100172.47
2022-09-12T11:49:41.670Z,100164.59
2022-09-12T11:52:13.715Z,100156.50
2022-09-12T11:54:49.048Z,100168.22
2022-09-12T11:57:25.292Z,100168.56
2022-09-12T11:59:58.653Z,100165.87
2022-09-12T12:02:37.114Z,100163.50
2022-09-12T12:05:06.911Z,100163.41
2022-09-12T12:07:45.754Z,100168.88
2022-09-12T12:10:38.448Z,100160.34
2022-09-12T12:13:18.419Z,100165.34
2022-09-12T12:16:00.946Z,100159.97
2022-09-12T12:18:29.054Z,100157.50
2022-09-12T12:20:56.337Z,100156.38
2022-09-12T12:23:28.471Z,100148.28
2022-09-12T12:25:56.902Z,100140.59
2022-09-12T12:28:41.765Z,100141.72
2022-09-12T12:31:09.891Z,100146.47
2022-09-12T12:33:39.526Z,100144.44
2022-09-12T12:36:08.700Z,100147.28
2022-09-12T12:38:38.986Z,100135.66
2022-09-12T12:41:17.847Z,100135.56
2022-09-12T12:43:52.416Z,100136.59
2022-09-12T12:46:20.637Z,100140.09
2022-09-12T12:48:52.295Z,100124.63
2022-09-12T12:51:24.744Z,100133.31
2022-09-12T12:53:51.921Z,100141.41
2022-09-12T12:56:44.867Z,100133.03
2022-09-12T12:59:23.200Z,100147.50
2022-09-12T13:01:55.379Z,100136.72
2022-09-12T13:04:27.294Z,100138.94
2022-09-12T13:07:08.370Z,100138.66
2022-09-12T13:09:44.583Z,100137.19
2022-09-12T13:12:30.668Z,100116.59
2022-09-12T13:15:01.945Z,100111.44
2022-09-12T13:17:42.543Z,100121.94
2022-09-12T13:20:28.409Z,100115.91
2022-09-12T13:22:56.699Z,100120.31
2022-09-12T13:25:31.860Z,100124.03
2022-09-12T13:27:59.904Z,100127.19
2022-09-12T13:30:27.411Z,100122.47
2022-09-12T13:32:53.904Z,100105.75
2022-09-12T13:35:38.605Z,100117.28
2022-09-12T13:38:16.043Z,100126.03
2022-09-12T13:41:04.812Z,100123.22
2022-09-12T13:43:42.477Z,100128.53
2022-09-12T13:46:12.841Z,100127.03
2022-09-12T13:48:39.468Z,100121.78
2022-09-12T13:51:06.128Z,100129.97
2022-09-12T13:53:42.500Z,100109.38
2022-09-12T13:56:08.766Z,100122.94
2022-09-12T13:58:35.394Z,100109.72
2022-09-12T14:01:07.682Z,100112.81
2022-09-12T14:03:59.190Z,100114.47
2022-09-12T14:06:27.663Z,100117.38
2022-09-12T14:08:58.630Z,100117.69
2022-09-12T14:11:30.483Z,100118.44
2022-09-12T14:13:57.590Z,100101.13
2022-09-12T14:16:27.293Z,100119.50
2022-09-12T14:18:54.307Z,100112.66
2022-09-12T14:21:35.466Z,100126.50
2022-09-12T14:24:03.549Z,100122.81
2022-09-12T14:26:32.492Z,100116.69
2022-09-12T14:28:59.276Z,100121.59
2022-09-12T14:31:36.675Z,100124.00
2022-09-12T14:34:17.646Z,100129.28
2022-09-12T14:36:52.279Z,100113.09
2022-09-12T14:39:43.173Z,100117.72
2022-09-12T14:42:12.339Z,100133.75
2022-09-12T14:44:39.369Z,100129.13
2022-09-12T14:47:14.358Z,100120.25
2022-09-12T14:49:41.157Z,100131.53
2022-09-12T14:52:21.660Z,100118.00
2022-09-12T14:55:16.207Z,100135.22
2022-09-12T14:57:44.482Z,100138.97
2022-09-12T15:00:14.004Z,100137.66
2022-09-12T15:02:41.791Z,100143.66
2022-09-12T15:05:08.006Z,100124.81
2022-09-12T15:07:40.568Z,100134.25
2022-09-12T15:10:25.458Z,100143.25
2022-09-12T15:13:16.981Z,100141.94
2022-09-12T15:15:51.344Z,100130.62
2022-09-12T15:18:19.617Z,100140.62
2022-09-12T15:20:47.939Z,100137.16
2022-09-12T15:23:41.563Z,100133.19
2022-09-12T15:26:11.399Z,100146.13
2022-09-12T15:28:37.699Z,100123.94
2022-09-12T15:31:13.059Z,100151.09
2022-09-12T15:33:39.675Z,100154.78
2022-09-12T15:36:13.273Z,100152.47
2022-09-12T15:38:39.811Z,100144.00
2022-09-12T15:41:13.899Z,100157.44
2022-09-12T15:43:40.640Z,100162.41
2022-09-12T15:46:06.959Z,100163.91
2022-09-12T15:48:33.438Z,100164.06
2022-09-12T15:51:01.689Z,100175.34
2022-09-12T15:53:28.344Z,100178.19
2022-09-12T15:55:54.568Z,100185.66
2022-09-12T15:58:21.169Z,100186.94
2022-09-12T16:00:47.390Z,100187.59
2022-09-12T16:03:23.432Z,100194.72
2022-09-12T16:05:51.082Z,100200.53
2022-09-12T16:08:17.727Z,100200.84
2022-09-12T16:10:44.340Z,100204.97
2022-09-12T16:13:10.636Z,100203.44
2022-09-12T16:15:37.931Z,100197.34
2022-09-12T16:18:04.291Z,100210.22
2022-09-12T16:20:30.525Z,100190.72
2022-09-12T16:22:57.184Z,100203.91
2022-09-12T16:25:23.427Z,100202.16
2022-09-12T16:27:50.027Z,100187.69
2022-09-12T16:30:16.753Z,100208.47
2022-09-12T16:32:43.006Z,100210.88
2022-09-12T16:35:09.771Z,100204.25
2022-09-12T16:37:36.482Z,100195.97
2022-09-12T16:40:04.444Z,100205.47
2022-09-12T16:42:30.882Z,100212.06
2022-09-12T16:44:57.722Z,100194.41
2022-09-12T16:47:23.990Z,100217.44
2022-09-12T16:49:51.307Z,100220.28
2022-09-12T16:52:18.764Z,100219.06
2022-09-12T16:54:45.227Z,100207.91
2022-09-12T16:57:11.682Z,100231.81
2022-09-12T16:59:38.285Z,100190.84
2022-09-12T17:02:04.589Z,100229.22
2022-09-12T17:04:30.871Z,100228.66
2022-09-12T17:06:59.400Z,100229.78
2022-09-12T17:09:25.812Z,100219.63
2022-09-12T17:11:53.175Z,100228.44
2022-09-12T17:14:19.721Z,100236.66
2022-09-12T17:16:51.531Z,100234.72
2022-09-12T17:19:27.960Z,100238.62
2022-09-12T17:21:54.789Z,100211.62
2022-09-12T17:24:21.125Z,100237.56
2022-09-12T17:26:47.435Z,100233.53
2022-09-12T17:29:14.701Z,100223.97
2022-09-12T17:31:41.751Z,100237.88
2022-09-12T17:34:08.400Z,100231.78
2022-09-12T17:36:35.157Z,100251.50
2022-09-12T17:39:03.697Z,100256.19
2022-09-12T17:41:33.814Z,100250.94
2022-09-12T17:44:01.310Z,100258.97
2022-09-12T17:46:33.468Z,100246.72
2022-09-12T17:49:01.018Z,100259.78
2022-09-12T17:51:30.591Z,100260.16
2022-09-12T17:54:02.130Z,100261.16
2022-09-12T17:56:30.929Z,100262.53
2022-09-12T17:58:58.407Z,100271.56
2022-09-12T18:01:44.510Z,100271.56
2022-09-12T18:04:11.223Z,100258.41
2022-09-12T18:06:37.730Z,100272.69
2022-09-12T18:09:05.946Z,100288.41
2022-09-12T18:11:32.973Z,100278.97
2022-09-12T18:13:59.771Z,100286.47
2022-09-12T18:16:26.737Z,100282.47
2022-09-12T18:18:53.248Z,100291.09
2022-09-12T18:21:19.858Z,100290.78
2022-09-12T18:23:46.900Z,100296.88
2022-09-12T18:26:13.798Z,100296.47
2022-09-12T18:28:42.384Z,100297.00
2022-09-12T18:31:17.483Z,100291.44
2022-09-12T18:33:44.363Z,100299.81
2022-09-12T18:36:12.068Z,100288.34
2022-09-12T18:38:38.940Z,100298.22
2022-09-12T18:41:11.210Z,100305.28
2022-09-12T18:43:37.837Z,100300.00
2022-09-12T18:46:06.223Z,100298.50
2022-09-12T18:48:33.190Z,100295.69
2022-09-12T18:51:12.141Z,100298.50
2022-09-12T18:53:39.249Z,100296.84
2022-09-12T18:56:10.747Z,100298.22
2022-09-12T18:58:38.529Z,100308.50
2022-09-12T19:01:13.540Z,100298.09
2022-09-12T19:03:40.318Z,100285.47
2022-09-12T19:06:08.828Z,100272.97
2022-09-12T19:08:36.261Z,100309.34
2022-09-12T19:11:03.234Z,100305.84
2022-09-12T19:13:30.038Z,100288.09
2022-09-12T19:15:56.357Z,100299.06
2022-09-12T19:18:22.590Z,100302.69
2022-09-12T19:20:52.781Z,100287.28
2022-09-12T19:23:19.194Z,100298.13
2022-09-12T19:25:45.595Z,100265.47
2022-09-12T19:28:12.352Z,100285.44
2022-09-12T19:30:46.643Z,100298.37
2022-09-12T19:33:13.206Z,100293.63
2022-09-12T19:35:39.673Z,100279.19
2022-09-12T19:38:05.902Z,100284.19
2022-09-12T19:40:32.430Z,100303.06
2022-09-12T19:42:58.651Z,100302.22
2022-09-12T19:45:24.906Z,100296.41
2022-09-12T19:47:51.747Z,100283.94
2022-09-12T19:50:18.040Z,100290.47
2022-09-12T19:52:44.270Z,100297.41
2022-09-12T19:55:10.859Z,100290.47
2022-09-12T19:57:37.076Z,100296.16
2022-09-12T20:00:05.870Z,100300.16
2022-09-12T20:02:32.219Z,100299.75
2022-09-12T20:04:58.776Z,100297.91
2022-09-12T20:07:25.039Z,100298.03
2022-09-12T20:09:51.274Z,100298.25
2022-09-12T20:12:17.937Z,100281.00
2022-09-12T20:14:44.351Z,100293.63
2022-09-12T20:17:10.586Z,100295.38
2022-09-12T20:19:37.287Z,100289.81
2022-09-12T20:22:03.881Z,100290.34
2022-09-12T20:24:30.158Z,100287.53
2022-09-12T20:26:57.592Z,100285.66
2022-09-12T20:29:26.071Z,100290.59
2022-09-12T20:31:52.352Z,100294.59
2022-09-12T20:34:20.440Z,100294.16
2022-09-12T20:36:47.637Z,100303.38
2022-09-12T20:39:16.840Z,100298.59
2022-09-12T20:41:43.469Z,100286.59
2022-09-12T20:44:10.053Z,100286.56
2022-09-12T20:46:36.500Z,100299.16
2022-09-12T20:49:03.203Z,100297.06
2022-09-12T20:51:30.418Z,100287.06
2022-09-12T20:53:58.879Z,100274.75
2022-09-12T20:56:27.093Z,100290.53
2022-09-12T20:58:54.733Z,100291.53
2022-09-12T21:01:21.243Z,100300.00
2022-09-12T21:03:48.448Z,100306.31
2022-09-12T21:06:18.512Z,100307.56
2022-09-12T21:08:46.091Z,100303.88
2022-09-12T21:11:12.903Z,100312.84
2022-09-12T21:13:39.434Z,100291.37
2022-09-12T21:16:15.022Z,100292.59
2022-09-12T21:18:41.716Z,100317.78
2022-09-12T21:21:09.995Z,100313.16
2022-09-12T21:23:36.226Z,100324.13
2022-09-12T21:26:03.538Z,100312.94
2022-09-12T21:28:30.027Z,100320.81
2022-09-12T21:30:56.464Z,100318.78
2022-09-12T21:33:23.479Z,100320.47
2022-09-12T21:35:50.128Z,100320.25
2022-09-12T21:38:17.127Z,100317.34
2022-09-12T21:40:43.673Z,100311.25
2022-09-12T21:43:12.688Z,100313.16
2022-09-12T21:45:39.639Z,100308.37
2022-09-12T21:48:06.162Z,100312.19
2022-09-12T21:50:32.401Z,100306.59
2022-09-12T21:52:58.699Z,100300.88
2022-09-12T21:55:27.137Z,100302.03
2022-09-12T21:57:54.250Z,100295.47
2022-09-12T22:00:20.630Z,100290.69
2022-09-12T22:02:48.329Z,100275.38
2022-09-12T22:05:15.048Z,100288.97
2022-09-12T22:07:41.291Z,100278.72
2022-09-12T22:10:08.162Z,100295.03
2022-09-12T22:12:34.394Z,100295.41
2022-09-12T22:15:12.750Z,100282.25
2022-09-12T22:17:44.219Z,100271.03
2022-09-12T22:20:11.222Z,100291.06
2022-09-12T22:22:56.680Z,100287.94
2022-09-12T22:25:26.444Z,100294.25
2022-09-12T22:27:53.074Z,100292.00
2022-09-12T22:30:20.913Z,100295.63
2022-09-12T22:32:51.106Z,100279.06
2022-09-12T22:35:18.440Z,100275.69
2022-09-12T22:37:44.791Z,100289.00
2022-09-12T22:40:11.898Z,100296.34
2022-09-12T22:42:38.687Z,100291.41
2022-09-12T22:45:05.870Z,100296.06
2022-09-12T22:47:32.376Z,100295.22
2022-09-12T22:49:58.833Z,100269.84
2022-09-12T22:52:25.072Z,100269.22
2022-09-12T22:54:51.587Z,100294.41
2022-09-12T22:57:18.063Z,100287.53
2022-09-12T22:59:44.291Z,100289.44
2022-09-12T23:02:10.802Z,100282.84
2022-09-12T23:04:37.125Z,100284.19
2022-09-12T23:07:03.495Z,100270.41
2022-09-12T23:09:34.660Z,100260.69
2022-09-12T23:12:01.699Z,100279.41
2022-09-12T23:14:27.939Z,100277.97
2022-09-12T23:16:54.464Z,100276.06
2022-09-12T23:19:20.850Z,100266.88
2022-09-12T23:21:47.105Z,100271.81
2022-09-12T23:24:13.676Z,100255.81
2022-09-12T23:26:39.902Z,100269.91
2022-09-12T23:29:06.780Z,100249.34
2022-09-12T23:31:33.835Z,100277.47
2022-09-12T23:34:02.089Z,100271.97
2022-09-12T23:36:28.883Z,100261.81
2022-09-12T23:38:55.627Z,100258.56
2022-09-12T23:41:22.447Z,100269.25
2022-09-12T23:43:48.788Z,100270.41
2022-09-12T23:46:16.763Z,100263.00
2022-09-12T23:48:43.491Z,100268.25
2022-09-12T23:51:10.577Z,100275.84
2022-09-12T23:53:37.606Z,100267.69
2022-09-12T23:56:04.661Z,100265.47
2022-09-12T23:58:31.034Z,100263.81
